sensor_id;sensor_type;location;lat;lon;timestamp;temperature;humidity
3406;DHT22;10008;48.682;9.016;2024-01-30T00:01:50;3.00;99.90
3406;DHT22;10008;48.682;9.016;2024-01-30T00:04:16;3.00;99.90
3406;DHT22;10008;48.682;9.016;2024-01-30T00:06:43;2.80;99.90
3406;DHT22;10008;48.682;9.016;2024-01-30T00:09:08;2.80;99.90
3406;DHT22;10008;48.682;9.016;2024-01-30T00:11:36;2.80;99.90
3406;DHT22;10008;48.682;9.016;2024-01-30T00:14:01;2.80;99.90
3406;DHT22;10008;48.682;9.016;2024-01-30T00:16:28;2.80;99.90
3406;DHT22;10008;48.682;9.016;2024-01-30T00:18:54;2.80;99.90
3406;DHT22;10008;48.682;9.016;2024-01-30T00:21:20;2.80;99.90
3406;DHT22;10008;48.682;9.016;2024-01-30T00:23:47;2.80;99.90
3406;DHT22;10008;48.682;9.016;2024-01-30T00:26:13;2.80;99.90
3406;DHT22;10008;48.682;9.016;2024-01-30T00:28:41;2.90;99.90
3406;DHT22;10008;48.682;9.016;2024-01-30T00:31:07;2.90;99.90
3406;DHT22;10008;48.682;9.016;2024-01-30T00:33:32;2.90;99.90
3406;DHT22;10008;48.682;9.016;2024-01-30T00:35:58;3.00;99.90
3406;DHT22;10008;48.682;9.016;2024-01-30T00:38:24;2.90;99.90
3406;DHT22;10008;48.682;9.016;2024-01-30T00:40:50;3.20;99.90
3406;DHT22;10008;48.682;9.016;2024-01-30T00:43:16;3.10;99.90
3406;DHT22;10008;48.682;9.016;2024-01-30T00:45:43;2.90;99.90
3406;DHT22;10008;48.682;9.016;2024-01-30T00:48:09;3.00;99.90
3406;DHT22;10008;48.682;9.016;2024-01-30T00:50:35;3.00;99.90
3406;DHT22;10008;48.682;9.016;2024-01-30T00:53:00;2.90;99.90
3406;DHT22;10008;48.682;9.016;2024-01-30T00:55:26;2.90;99.90
3406;DHT22;10008;48.682;9.016;2024-01-30T00:57:52;2.90;99.90
3406;DHT22;10008;48.682;9.016;2024-01-30T01:00:18;2.80;99.90
3406;DHT22;10008;48.682;9.016;2024-01-30T01:02:43;2.80;99.90
3406;DHT22;10008;48.682;9.016;2024-01-30T01:05:10;2.90;99.90
3406;DHT22;10008;48.682;9.016;2024-01-30T01:07:36;2.70;99.90
3406;DHT22;10008;48.682;9.016;2024-01-30T01:10:02;2.60;99.90
3406;DHT22;10008;48.682;9.016;2024-01-30T01:12:28;2.70;99.90
3406;DHT22;10008;48.682;9.016;2024-01-30T01:14:53;2.80;99.90
3406;DHT22;10008;48.682;9.016;2024-01-30T01:17:19;2.80;99.90
3406;DHT22;10008;48.682;9.016;2024-01-30T01:19:45;2.80;99.90
3406;DHT22;10008;48.682;9.016;2024-01-30T01:22:11;2.90;99.90
3406;DHT22;10008;48.682;9.016;2024-01-30T01:24:37;3.00;99.90
3406;DHT22;10008;48.682;9.016;2024-01-30T01:27:02;2.90;99.90
3406;DHT22;10008;48.682;9.016;2024-01-30T01:29:28;2.90;99.90
3406;DHT22;10008;48.682;9.016;2024-01-30T01:31:57;2.90;99.90
3406;DHT22;10008;48.682;9.016;2024-01-30T01:34:24;2.90;99.90
3406;DHT22;10008;48.682;9.016;2024-01-30T01:36:50;3.30;99.90
3406;DHT22;10008;48.682;9.016;2024-01-30T01:39:16;2.90;99.90
3406;DHT22;10008;48.682;9.016;2024-01-30T01:41:42;2.70;99.90
3406;DHT22;10008;48.682;9.016;2024-01-30T01:44:08;2.70;99.90
3406;DHT22;10008;48.682;9.016;2024-01-30T01:46:35;3.10;99.90
3406;DHT22;10008;48.682;9.016;2024-01-30T01:49:02;2.80;99.90
3406;DHT22;10008;48.682;9.016;2024-01-30T01:51:31;2.70;99.90
3406;DHT22;10008;48.682;9.016;2024-01-30T01:53:58;2.80;99.90
3406;DHT22;10008;48.682;9.016;2024-01-30T01:56:25;3.10;99.90
3406;DHT22;10008;48.682;9.016;2024-01-30T01:58:54;2.70;99.90
3406;DHT22;10008;48.682;9.016;2024-01-30T02:01:21;3.20;99.90
3406;DHT22;10008;48.682;9.016;2024-01-30T02:03:47;2.70;99.90
3406;DHT22;10008;48.682;9.016;2024-01-30T02:06:16;2.70;99.90
3406;DHT22;10008;48.682;9.016;2024-01-30T02:08:42;2.40;99.90
3406;DHT22;10008;48.682;9.016;2024-01-30T02:11:08;2.40;99.90
3406;DHT22;10008;48.682;9.016;2024-01-30T02:13:36;2.40;99.90
3406;DHT22;10008;48.682;9.016;2024-01-30T02:16:02;2.40;99.90
3406;DHT22;10008;48.682;9.016;2024-01-30T02:18:27;2.40;99.90
3406;DHT22;10008;48.682;9.016;2024-01-30T02:20:56;2.50;99.90
3406;DHT22;10008;48.682;9.016;2024-01-30T02:23:24;2.50;99.90
3406;DHT22;10008;48.682;9.016;2024-01-30T02:25:50;3.00;99.90
3406;DHT22;10008;48.682;9.016;2024-01-30T02:28:19;2.50;99.90
3406;DHT22;10008;48.682;9.016;2024-01-30T02:30:46;2.50;99.90
3406;DHT22;10008;48.682;9.016;2024-01-30T02:33:12;2.50;99.90
3406;DHT22;10008;48.682;9.016;2024-01-30T02:35:38;2.50;99.90
3406;DHT22;10008;48.682;9.016;2024-01-30T02:38:04;2.60;99.90
3406;DHT22;10008;48.682;9.016;2024-01-30T02:40:31;2.40;99.90
3406;DHT22;10008;48.682;9.016;2024-01-30T02:42:58;2.40;99.90
3406;DHT22;10008;48.682;9.016;2024-01-30T02:45:24;2.40;99.90
3406;DHT22;10008;48.682;9.016;2024-01-30T02:47:50;2.40;99.90
3406;DHT22;10008;48.682;9.016;2024-01-30T02:50:16;2.20;99.90
3406;DHT22;10008;48.682;9.016;2024-01-30T02:52:42;2.10;99.90
3406;DHT22;10008;48.682;9.016;2024-01-30T02:55:11;2.30;99.90
3406;DHT22;10008;48.682;9.016;2024-01-30T02:57:38;2.40;99.90
3406;DHT22;10008;48.682;9.016;2024-01-30T03:00:04;2.30;99.90
3406;DHT22;10008;48.682;9.016;2024-01-30T03:02:32;2.00;99.90
3406;DHT22;10008;48.682;9.016;2024-01-30T03:04:59;2.40;99.90
3406;DHT22;10008;48.682;9.016;2024-01-30T03:07:25;1.90;99.90
3406;DHT22;10008;48.682;9.016;2024-01-30T03:09:51;1.90;99.90
3406;DHT22;10008;48.682;9.016;2024-01-30T03:12:17;1.90;99.90
3406;DHT22;10008;48.682;9.016;2024-01-30T03:14:42;2.10;99.90
3406;DHT22;10008;48.682;9.016;2024-01-30T03:17:08;2.00;99.90
3406;DHT22;10008;48.682;9.016;2024-01-30T03:19:34;2.00;99.90
3406;DHT22;10008;48.682;9.016;2024-01-30T03:22:00;2.00;99.90
3406;DHT22;10008;48.682;9.016;2024-01-30T03:24:25;2.00;99.90
3406;DHT22;10008;48.682;9.016;2024-01-30T03:26:51;2.00;99.90
3406;DHT22;10008;48.682;9.016;2024-01-30T03:29:17;1.90;99.90
3406;DHT22;10008;48.682;9.016;2024-01-30T03:31:43;1.90;99.90
3406;DHT22;10008;48.682;9.016;2024-01-30T03:34:08;2.10;99.90
3406;DHT22;10008;48.682;9.016;2024-01-30T03:36:34;2.10;99.90
3406;DHT22;10008;48.682;9.016;2024-01-30T03:39:01;2.10;99.90
3406;DHT22;10008;48.682;9.016;2024-01-30T03:41:26;1.90;99.90
3406;DHT22;10008;48.682;9.016;2024-01-30T03:43:52;2.40;99.90
3406;DHT22;10008;48.682;9.016;2024-01-30T03:46:18;2.00;99.90
3406;DHT22;10008;48.682;9.016;2024-01-30T03:48:45;1.80;99.90
3406;DHT22;10008;48.682;9.016;2024-01-30T03:51:11;1.80;99.90
3406;DHT22;10008;48.682;9.016;2024-01-30T03:53:44;1.70;99.90
3406;DHT22;10008;48.682;9.016;2024-01-30T03:56:12;1.70;99.90
3406;DHT22;10008;48.682;9.016;2024-01-30T03:58:40;1.70;99.90
3406;DHT22;10008;48.682;9.016;2024-01-30T04:01:07;1.70;99.90
3406;DHT22;10008;48.682;9.016;2024-01-30T04:03:33;1.70;99.90
3406;DHT22;10008;48.682;9.016;2024-01-30T04:05:59;1.80;99.90
3406;DHT22;10008;48.682;9.016;2024-01-30T04:08:24;1.80;99.90
3406;DHT22;10008;48.682;9.016;2024-01-30T04:10:50;1.70;99.90
3406;DHT22;10008;48.682;9.016;2024-01-30T04:13:16;1.60;99.90
3406;DHT22;10008;48.682;9.016;2024-01-30T04:15:42;1.60;99.90
3406;DHT22;10008;48.682;9.016;2024-01-30T04:18:07;1.70;99.90
3406;DHT22;10008;48.682;9.016;2024-01-30T04:20:33;1.60;99.90
3406;DHT22;10008;48.682;9.016;2024-01-30T04:22:59;1.60;99.90
3406;DHT22;10008;48.682;9.016;2024-01-30T04:25:24;1.60;99.90
3406;DHT22;10008;48.682;9.016;2024-01-30T04:27:50;1.60;99.90
3406;DHT22;10008;48.682;9.016;2024-01-30T04:30:16;1.70;99.90
3406;DHT22;10008;48.682;9.016;2024-01-30T04:32:43;1.60;99.90
3406;DHT22;10008;48.682;9.016;2024-01-30T04:35:09;1.60;99.90
3406;DHT22;10008;48.682;9.016;2024-01-30T04:37:35;1.60;99.90
3406;DHT22;10008;48.682;9.016;2024-01-30T04:40:01;1.90;99.90
3406;DHT22;10008;48.682;9.016;2024-01-30T04:42:26;1.60;99.90
3406;DHT22;10008;48.682;9.016;2024-01-30T04:44:52;1.60;99.90
3406;DHT22;10008;48.682;9.016;2024-01-30T04:47:18;1.50;99.90
3406;DHT22;10008;48.682;9.016;2024-01-30T04:49:43;1.40;99.90
3406;DHT22;10008;48.682;9.016;2024-01-30T04:52:09;1.40;99.90
3406;DHT22;10008;48.682;9.016;2024-01-30T04:54:36;1.50;99.90
3406;DHT22;10008;48.682;9.016;2024-01-30T04:57:02;1.60;99.90
3406;DHT22;10008;48.682;9.016;2024-01-30T04:59:28;1.60;99.90
3406;DHT22;10008;48.682;9.016;2024-01-30T05:01:54;1.60;99.90
3406;DHT22;10008;48.682;9.016;2024-01-30T05:04:20;1.80;99.90
3406;DHT22;10008;48.682;9.016;2024-01-30T05:06:47;1.60;99.90
3406;DHT22;10008;48.682;9.016;2024-01-30T05:09:13;1.50;99.90
3406;DHT22;10008;48.682;9.016;2024-01-30T05:11:40;1.80;99.90
3406;DHT22;10008;48.682;9.016;2024-01-30T05:14:06;1.50;99.90
3406;DHT22;10008;48.682;9.016;2024-01-30T05:16:32;1.50;99.90
3406;DHT22;10008;48.682;9.016;2024-01-30T05:18:58;1.60;99.90
3406;DHT22;10008;48.682;9.016;2024-01-30T05:21:24;1.60;99.90
3406;DHT22;10008;48.682;9.016;2024-01-30T05:23:50;1.60;99.90
3406;DHT22;10008;48.682;9.016;2024-01-30T05:26:16;1.50;99.90
3406;DHT22;10008;48.682;9.016;2024-01-30T05:28:42;1.50;99.90
3406;DHT22;10008;48.682;9.016;2024-01-30T05:31:10;1.40;99.90
3406;DHT22;10008;48.682;9.016;2024-01-30T05:33:35;1.40;99.90
3406;DHT22;10008;48.682;9.016;2024-01-30T05:36:01;1.30;99.90
3406;DHT22;10008;48.682;9.016;2024-01-30T05:38:30;1.30;99.90
3406;DHT22;10008;48.682;9.016;2024-01-30T05:40:57;1.20;99.90
3406;DHT22;10008;48.682;9.016;2024-01-30T05:43:24;1.40;99.90
3406;DHT22;10008;48.682;9.016;2024-01-30T05:45:50;1.40;99.90
3406;DHT22;10008;48.682;9.016;2024-01-30T05:48:16;1.40;99.90
3406;DHT22;10008;48.682;9.016;2024-01-30T05:50:42;1.40;99.90
3406;DHT22;10008;48.682;9.016;2024-01-30T05:53:07;1.50;99.90
3406;DHT22;10008;48.682;9.016;2024-01-30T05:55:33;1.30;99.90
3406;DHT22;10008;48.682;9.016;2024-01-30T05:57:59;1.40;99.90
3406;DHT22;10008;48.682;9.016;2024-01-30T06:00:24;1.50;99.90
3406;DHT22;10008;48.682;9.016;2024-01-30T06:02:50;1.50;99.90
3406;DHT22;10008;48.682;9.016;2024-01-30T06:05:16;1.50;99.90
3406;DHT22;10008;48.682;9.016;2024-01-30T06:07:42;1.60;99.90
3406;DHT22;10008;48.682;9.016;2024-01-30T06:10:08;1.50;99.90
3406;DHT22;10008;48.682;9.016;2024-01-30T06:12:34;1.30;99.90
3406;DHT22;10008;48.682;9.016;2024-01-30T06:15:01;1.30;99.90
3406;DHT22;10008;48.682;9.016;2024-01-30T06:17:26;1.40;99.90
3406;DHT22;10008;48.682;9.016;2024-01-30T06:19:52;1.50;99.90
3406;DHT22;10008;48.682;9.016;2024-01-30T06:22:18;1.40;99.90
3406;DHT22;10008;48.682;9.016;2024-01-30T06:24:44;1.30;99.90
3406;DHT22;10008;48.682;9.016;2024-01-30T06:27:16;1.30;99.90
3406;DHT22;10008;48.682;9.016;2024-01-30T06:29:43;1.70;99.90
3406;DHT22;10008;48.682;9.016;2024-01-30T06:32:09;1.40;99.90
3406;DHT22;10008;48.682;9.016;2024-01-30T06:34:35;1.40;99.90
3406;DHT22;10008;48.682;9.016;2024-01-30T06:37:00;1.40;99.90
3406;DHT22;10008;48.682;9.016;2024-01-30T06:39:26;1.50;99.90
3406;DHT22;10008;48.682;9.016;2024-01-30T06:41:52;1.50;99.90
3406;DHT22;10008;48.682;9.016;2024-01-30T06:44:19;1.50;99.90
3406;DHT22;10008;48.682;9.016;2024-01-30T06:46:45;1.50;99.90
3406;DHT22;10008;48.682;9.016;2024-01-30T06:49:10;1.50;99.90
3406;DHT22;10008;48.682;9.016;2024-01-30T06:51:36;1.60;99.90
3406;DHT22;10008;48.682;9.016;2024-01-30T06:54:02;1.60;99.90
3406;DHT22;10008;48.682;9.016;2024-01-30T06:56:28;1.60;99.90
3406;DHT22;10008;48.682;9.016;2024-01-30T06:58:54;1.90;99.90
3406;DHT22;10008;48.682;9.016;2024-01-30T07:01:19;1.60;99.90
3406;DHT22;10008;48.682;9.016;2024-01-30T07:03:45;1.70;99.90
3406;DHT22;10008;48.682;9.016;2024-01-30T07:06:11;1.80;99.90
3406;DHT22;10008;48.682;9.016;2024-01-30T07:08:37;1.70;99.90
3406;DHT22;10008;48.682;9.016;2024-01-30T07:11:05;1.60;99.90
3406;DHT22;10008;48.682;9.016;2024-01-30T07:13:32;1.70;99.90
3406;DHT22;10008;48.682;9.016;2024-01-30T07:15:58;1.70;99.90
3406;DHT22;10008;48.682;9.016;2024-01-30T07:18:24;1.70;99.90
3406;DHT22;10008;48.682;9.016;2024-01-30T07:20:50;1.60;99.90
3406;DHT22;10008;48.682;9.016;2024-01-30T07:23:16;1.60;99.90
3406;DHT22;10008;48.682;9.016;2024-01-30T07:25:46;1.70;99.90
3406;DHT22;10008;48.682;9.016;2024-01-30T07:28:15;1.80;99.90
3406;DHT22;10008;48.682;9.016;2024-01-30T07:30:44;1.80;99.90
3406;DHT22;10008;48.682;9.016;2024-01-30T07:33:10;1.80;99.90
3406;DHT22;10008;48.682;9.016;2024-01-30T07:35:36;1.90;99.90
3406;DHT22;10008;48.682;9.016;2024-01-30T07:38:02;2.00;99.90
3406;DHT22;10008;48.682;9.016;2024-01-30T07:40:27;2.00;99.90
3406;DHT22;10008;48.682;9.016;2024-01-30T07:42:53;2.00;99.90
3406;DHT22;10008;48.682;9.016;2024-01-30T07:45:19;2.60;99.90
3406;DHT22;10008;48.682;9.016;2024-01-30T07:47:50;2.30;99.90
3406;DHT22;10008;48.682;9.016;2024-01-30T07:50:16;2.30;99.90
3406;DHT22;10008;48.682;9.016;2024-01-30T07:52:42;2.40;99.90
3406;DHT22;10008;48.682;9.016;2024-01-30T07:55:08;2.50;99.90
3406;DHT22;10008;48.682;9.016;2024-01-30T07:57:34;2.70;99.90
3406;DHT22;10008;48.682;9.016;2024-01-30T08:00:01;2.80;99.90
3406;DHT22;10008;48.682;9.016;2024-01-30T08:02:26;2.80;99.90
3406;DHT22;10008;48.682;9.016;2024-01-30T08:04:52;2.90;99.90
3406;DHT22;10008;48.682;9.016;2024-01-30T08:07:18;3.10;99.90
3406;DHT22;10008;48.682;9.016;2024-01-30T08:09:44;3.40;99.90
3406;DHT22;10008;48.682;9.016;2024-01-30T08:12:09;3.60;99.90
3406;DHT22;10008;48.682;9.016;2024-01-30T08:14:35;3.60;99.90
3406;DHT22;10008;48.682;9.016;2024-01-30T08:17:01;3.70;99.90
3406;DHT22;10008;48.682;9.016;2024-01-30T08:19:27;4.00;99.90
3406;DHT22;10008;48.682;9.016;2024-01-30T08:21:52;4.00;99.90
3406;DHT22;10008;48.682;9.016;2024-01-30T08:24:18;4.10;99.90
3406;DHT22;10008;48.682;9.016;2024-01-30T08:26:44;4.20;99.90
3406;DHT22;10008;48.682;9.016;2024-01-30T08:29:09;4.40;99.90
3406;DHT22;10008;48.682;9.016;2024-01-30T08:31:35;4.50;99.90
3406;DHT22;10008;48.682;9.016;2024-01-30T08:34:01;4.60;99.90
3406;DHT22;10008;48.682;9.016;2024-01-30T08:36:27;4.70;99.90
3406;DHT22;10008;48.682;9.016;2024-01-30T08:38:53;4.80;99.90
3406;DHT22;10008;48.682;9.016;2024-01-30T08:41:19;5.00;99.90
3406;DHT22;10008;48.682;9.016;2024-01-30T08:43:44;5.00;99.90
3406;DHT22;10008;48.682;9.016;2024-01-30T08:46:11;5.10;99.90
3406;DHT22;10008;48.682;9.016;2024-01-30T08:48:37;5.20;99.90
3406;DHT22;10008;48.682;9.016;2024-01-30T08:51:02;5.10;99.90
3406;DHT22;10008;48.682;9.016;2024-01-30T08:53:28;5.20;99.90
3406;DHT22;10008;48.682;9.016;2024-01-30T08:55:54;5.30;99.90
3406;DHT22;10008;48.682;9.016;2024-01-30T08:58:20;5.40;99.90
3406;DHT22;10008;48.682;9.016;2024-01-30T09:00:45;5.60;99.90
3406;DHT22;10008;48.682;9.016;2024-01-30T09:03:11;5.70;99.90
3406;DHT22;10008;48.682;9.016;2024-01-30T09:05:37;5.90;99.90
3406;DHT22;10008;48.682;9.016;2024-01-30T09:08:02;6.10;99.90
3406;DHT22;10008;48.682;9.016;2024-01-30T09:10:28;6.30;99.90
3406;DHT22;10008;48.682;9.016;2024-01-30T09:12:54;6.50;99.90
3406;DHT22;10008;48.682;9.016;2024-01-30T09:15:20;6.50;99.90
3406;DHT22;10008;48.682;9.016;2024-01-30T09:17:45;6.50;99.90
3406;DHT22;10008;48.682;9.016;2024-01-30T09:20:11;6.60;99.90
3406;DHT22;10008;48.682;9.016;2024-01-30T09:22:38;6.70;99.90
3406;DHT22;10008;48.682;9.016;2024-01-30T09:25:04;6.90;99.90
3406;DHT22;10008;48.682;9.016;2024-01-30T09:27:30;7.20;99.90
3406;DHT22;10008;48.682;9.016;2024-01-30T09:29:56;7.50;99.90
3406;DHT22;10008;48.682;9.016;2024-01-30T09:32:22;7.80;99.90
3406;DHT22;10008;48.682;9.016;2024-01-30T09:34:47;8.10;99.90
3406;DHT22;10008;48.682;9.016;2024-01-30T09:37:13;8.50;99.90
3406;DHT22;10008;48.682;9.016;2024-01-30T09:39:41;8.80;99.90
3406;DHT22;10008;48.682;9.016;2024-01-30T09:42:25;8.90;99.90
3406;DHT22;10008;48.682;9.016;2024-01-30T09:44:53;9.00;99.90
3406;DHT22;10008;48.682;9.016;2024-01-30T09:47:19;9.10;99.90
3406;DHT22;10008;48.682;9.016;2024-01-30T09:49:45;9.20;99.90
3406;DHT22;10008;48.682;9.016;2024-01-30T09:52:11;9.20;99.90
3406;DHT22;10008;48.682;9.016;2024-01-30T09:54:38;9.40;99.90
3406;DHT22;10008;48.682;9.016;2024-01-30T09:57:04;9.30;99.90
3406;DHT22;10008;48.682;9.016;2024-01-30T09:59:31;9.30;99.90
3406;DHT22;10008;48.682;9.016;2024-01-30T10:01:57;9.20;99.90
3406;DHT22;10008;48.682;9.016;2024-01-30T10:04:23;9.20;99.90
3406;DHT22;10008;48.682;9.016;2024-01-30T10:06:50;9.40;99.90
3406;DHT22;10008;48.682;9.016;2024-01-30T10:09:16;9.60;99.90
3406;DHT22;10008;48.682;9.016;2024-01-30T10:11:41;9.70;99.90
3406;DHT22;10008;48.682;9.016;2024-01-30T10:14:07;10.00;99.70
3406;DHT22;10008;48.682;9.016;2024-01-30T10:16:34;10.10;98.70
3406;DHT22;10008;48.682;9.016;2024-01-30T10:19:00;10.10;97.70
3406;DHT22;10008;48.682;9.016;2024-01-30T10:21:26;10.30;96.50
3406;DHT22;10008;48.682;9.016;2024-01-30T10:23:51;10.40;96.10
3406;DHT22;10008;48.682;9.016;2024-01-30T10:26:17;10.70;95.60
3406;DHT22;10008;48.682;9.016;2024-01-30T10:28:43;10.60;94.80
3406;DHT22;10008;48.682;9.016;2024-01-30T10:31:09;10.60;94.90
3406;DHT22;10008;48.682;9.016;2024-01-30T10:33:35;10.70;94.40
3406;DHT22;10008;48.682;9.016;2024-01-30T10:36:05;10.80;94.20
3406;DHT22;10008;48.682;9.016;2024-01-30T10:38:32;10.80;93.50
3406;DHT22;10008;48.682;9.016;2024-01-30T10:40:59;10.90;94.00
3406;DHT22;10008;48.682;9.016;2024-01-30T10:43:35;11.20;93.70
3406;DHT22;10008;48.682;9.016;2024-01-30T10:48:43;12.00;92.70
3406;DHT22;10008;48.682;9.016;2024-01-30T10:51:11;12.20;91.80
3406;DHT22;10008;48.682;9.016;2024-01-30T10:53:38;12.30;91.30
3406;DHT22;10008;48.682;9.016;2024-01-30T10:56:05;12.40;91.40
3406;DHT22;10008;48.682;9.016;2024-01-30T10:58:31;12.50;90.80
3406;DHT22;10008;48.682;9.016;2024-01-30T11:00:57;12.60;90.90
3406;DHT22;10008;48.682;9.016;2024-01-30T11:03:24;12.70;88.00
3406;DHT22;10008;48.682;9.016;2024-01-30T11:05:51;12.90;89.70
3406;DHT22;10008;48.682;9.016;2024-01-30T11:08:26;13.10;89.70
3406;DHT22;10008;48.682;9.016;2024-01-30T11:10:58;13.00;86.30
3406;DHT22;10008;48.682;9.016;2024-01-30T11:13:31;13.20;88.40
3406;DHT22;10008;48.682;9.016;2024-01-30T11:16:06;13.30;87.10
3406;DHT22;10008;48.682;9.016;2024-01-30T11:18:33;13.30;84.80
3406;DHT22;10008;48.682;9.016;2024-01-30T11:20:59;13.50;84.20
3406;DHT22;10008;48.682;9.016;2024-01-30T11:23:26;13.60;87.90
3406;DHT22;10008;48.682;9.016;2024-01-30T11:25:53;13.50;85.10
3406;DHT22;10008;48.682;9.016;2024-01-30T11:28:21;13.50;87.10
3406;DHT22;10008;48.682;9.016;2024-01-30T11:30:47;13.40;86.70
3406;DHT22;10008;48.682;9.016;2024-01-30T11:33:14;13.40;88.70
3406;DHT22;10008;48.682;9.016;2024-01-30T11:35:44;13.30;88.00
3406;DHT22;10008;48.682;9.016;2024-01-30T11:38:14;13.40;86.90
3406;DHT22;10008;48.682;9.016;2024-01-30T11:40:40;13.00;84.70
3406;DHT22;10008;48.682;9.016;2024-01-30T11:43:08;13.10;87.10
3406;DHT22;10008;48.682;9.016;2024-01-30T11:45:35;13.30;86.30
3406;DHT22;10008;48.682;9.016;2024-01-30T11:48:01;13.50;87.00
3406;DHT22;10008;48.682;9.016;2024-01-30T11:50:32;13.60;87.00
3406;DHT22;10008;48.682;9.016;2024-01-30T11:52:59;13.70;84.90
3406;DHT22;10008;48.682;9.016;2024-01-30T11:55:25;13.70;83.70
3406;DHT22;10008;48.682;9.016;2024-01-30T11:57:55;13.70;85.20
3406;DHT22;10008;48.682;9.016;2024-01-30T12:00:20;13.50;84.40
3406;DHT22;10008;48.682;9.016;2024-01-30T12:02:50;13.40;84.10
3406;DHT22;10008;48.682;9.016;2024-01-30T12:05:18;13.50;85.60
3406;DHT22;10008;48.682;9.016;2024-01-30T12:07:45;13.50;84.90
3406;DHT22;10008;48.682;9.016;2024-01-30T12:10:12;13.60;85.30
3406;DHT22;10008;48.682;9.016;2024-01-30T12:12:40;13.80;84.60
3406;DHT22;10008;48.682;9.016;2024-01-30T12:15:07;13.70;85.30
3406;DHT22;10008;48.682;9.016;2024-01-30T12:17:34;13.90;87.20
3406;DHT22;10008;48.682;9.016;2024-01-30T12:20:17;14.10;83.70
3406;DHT22;10008;48.682;9.016;2024-01-30T12:22:45;14.30;84.40
3406;DHT22;10008;48.682;9.016;2024-01-30T12:25:12;14.20;81.80
3406;DHT22;10008;48.682;9.016;2024-01-30T12:27:40;14.50;82.90
3406;DHT22;10008;48.682;9.016;2024-01-30T12:32:37;14.70;80.60
3406;DHT22;10008;48.682;9.016;2024-01-30T12:35:10;14.90;80.60
3406;DHT22;10008;48.682;9.016;2024-01-30T12:37:36;15.00;81.40
3406;DHT22;10008;48.682;9.016;2024-01-30T12:40:02;15.20;78.90
3406;DHT22;10008;48.682;9.016;2024-01-30T12:42:28;14.90;78.90
3406;DHT22;10008;48.682;9.016;2024-01-30T12:44:56;15.10;79.60
3406;DHT22;10008;48.682;9.016;2024-01-30T12:47:22;15.40;79.60
3406;DHT22;10008;48.682;9.016;2024-01-30T12:49:48;15.60;78.80
3406;DHT22;10008;48.682;9.016;2024-01-30T12:52:16;15.70;78.90
3406;DHT22;10008;48.682;9.016;2024-01-30T12:54:42;15.70;77.50
3406;DHT22;10008;48.682;9.016;2024-01-30T12:57:07;15.90;76.80
3406;DHT22;10008;48.682;9.016;2024-01-30T12:59:33;16.20;75.10
3406;DHT22;10008;48.682;9.016;2024-01-30T13:02:01;16.90;75.30
3406;DHT22;10008;48.682;9.016;2024-01-30T13:04:27;17.50;70.30
3406;DHT22;10008;48.682;9.016;2024-01-30T13:06:53;17.60;72.30
3406;DHT22;10008;48.682;9.016;2024-01-30T13:09:19;18.10;72.50
3406;DHT22;10008;48.682;9.016;2024-01-30T13:11:45;18.40;68.60
3406;DHT22;10008;48.682;9.016;2024-01-30T13:14:11;18.00;68.80
3406;DHT22;10008;48.682;9.016;2024-01-30T13:16:37;17.50;69.10
3406;DHT22;10008;48.682;9.016;2024-01-30T13:19:03;17.10;69.60
3406;DHT22;10008;48.682;9.016;2024-01-30T13:21:29;16.90;70.70
3406;DHT22;10008;48.682;9.016;2024-01-30T13:23:55;16.40;72.60
3406;DHT22;10008;48.682;9.016;2024-01-30T13:26:21;16.00;72.40
3406;DHT22;10008;48.682;9.016;2024-01-30T13:28:47;15.80;73.20
3406;DHT22;10008;48.682;9.016;2024-01-30T13:31:14;15.90;72.70
3406;DHT22;10008;48.682;9.016;2024-01-30T13:33:41;15.80;72.20
3406;DHT22;10008;48.682;9.016;2024-01-30T13:36:11;15.70;74.90
3406;DHT22;10008;48.682;9.016;2024-01-30T13:38:37;16.20;74.10
3406;DHT22;10008;48.682;9.016;2024-01-30T13:41:03;16.60;71.00
3406;DHT22;10008;48.682;9.016;2024-01-30T13:43:29;17.00;70.90
3406;DHT22;10008;48.682;9.016;2024-01-30T13:45:55;17.10;69.10
3406;DHT22;10008;48.682;9.016;2024-01-30T13:48:21;16.80;69.50
3406;DHT22;10008;48.682;9.016;2024-01-30T13:50:47;16.60;70.70
3406;DHT22;10008;48.682;9.016;2024-01-30T13:53:13;16.40;70.60
3406;DHT22;10008;48.682;9.016;2024-01-30T13:55:39;15.80;72.20
3406;DHT22;10008;48.682;9.016;2024-01-30T13:58:05;15.60;74.10
3406;DHT22;10008;48.682;9.016;2024-01-30T14:00:33;15.30;74.40
3406;DHT22;10008;48.682;9.016;2024-01-30T14:02:59;15.20;74.30
3406;DHT22;10008;48.682;9.016;2024-01-30T14:05:26;15.20;74.40
3406;DHT22;10008;48.682;9.016;2024-01-30T14:07:53;15.20;74.30
3406;DHT22;10008;48.682;9.016;2024-01-30T14:10:19;15.20;74.90
3406;DHT22;10008;48.682;9.016;2024-01-30T14:12:45;15.20;73.90
3406;DHT22;10008;48.682;9.016;2024-01-30T14:15:14;15.10;73.90
3406;DHT22;10008;48.682;9.016;2024-01-30T14:17:48;15.10;75.00
3406;DHT22;10008;48.682;9.016;2024-01-30T14:20:15;15.00;73.20
3406;DHT22;10008;48.682;9.016;2024-01-30T14:22:44;15.20;75.10
3406;DHT22;10008;48.682;9.016;2024-01-30T14:25:10;15.10;76.40
3406;DHT22;10008;48.682;9.016;2024-01-30T14:27:36;15.00;77.40
3406;DHT22;10008;48.682;9.016;2024-01-30T14:30:02;14.90;76.20
3406;DHT22;10008;48.682;9.016;2024-01-30T14:32:31;14.80;78.30
3406;DHT22;10008;48.682;9.016;2024-01-30T14:34:56;14.60;77.60
3406;DHT22;10008;48.682;9.016;2024-01-30T14:37:22;14.40;78.40
3406;DHT22;10008;48.682;9.016;2024-01-30T14:39:48;14.20;80.50
3406;DHT22;10008;48.682;9.016;2024-01-30T14:42:15;14.10;79.90
3406;DHT22;10008;48.682;9.016;2024-01-30T14:44:41;14.10;79.30
3406;DHT22;10008;48.682;9.016;2024-01-30T14:47:07;13.90;80.40
3406;DHT22;10008;48.682;9.016;2024-01-30T14:49:33;13.90;80.70
3406;DHT22;10008;48.682;9.016;2024-01-30T14:51:59;13.80;80.60
3406;DHT22;10008;48.682;9.016;2024-01-30T14:54:26;13.80;81.00
3406;DHT22;10008;48.682;9.016;2024-01-30T14:56:53;13.70;80.40
3406;DHT22;10008;48.682;9.016;2024-01-30T14:59:19;13.60;82.60
3406;DHT22;10008;48.682;9.016;2024-01-30T15:01:45;13.60;84.20
3406;DHT22;10008;48.682;9.016;2024-01-30T15:04:11;13.50;83.10
3406;DHT22;10008;48.682;9.016;2024-01-30T15:06:37;13.40;85.50
3406;DHT22;10008;48.682;9.016;2024-01-30T15:09:03;13.30;83.00
3406;DHT22;10008;48.682;9.016;2024-01-30T15:11:28;13.40;84.60
3406;DHT22;10008;48.682;9.016;2024-01-30T15:13:54;13.40;85.70
3406;DHT22;10008;48.682;9.016;2024-01-30T15:16:20;13.40;85.50
3406;DHT22;10008;48.682;9.016;2024-01-30T15:18:46;13.30;89.60
3406;DHT22;10008;48.682;9.016;2024-01-30T15:21:11;13.20;87.00
3406;DHT22;10008;48.682;9.016;2024-01-30T15:23:37;13.10;86.20
3406;DHT22;10008;48.682;9.016;2024-01-30T15:26:03;13.10;91.00
3406;DHT22;10008;48.682;9.016;2024-01-30T15:28:36;13.00;90.50
3406;DHT22;10008;48.682;9.016;2024-01-30T15:31:03;13.00;91.80
3406;DHT22;10008;48.682;9.016;2024-01-30T15:33:28;12.90;91.70
3406;DHT22;10008;48.682;9.016;2024-01-30T15:35:54;12.70;90.10
3406;DHT22;10008;48.682;9.016;2024-01-30T15:38:20;12.70;90.20
3406;DHT22;10008;48.682;9.016;2024-01-30T15:40:47;12.70;90.50
3406;DHT22;10008;48.682;9.016;2024-01-30T15:43:12;12.60;90.90
3406;DHT22;10008;48.682;9.016;2024-01-30T15:45:38;12.60;91.50
3406;DHT22;10008;48.682;9.016;2024-01-30T15:48:04;12.50;91.60
3406;DHT22;10008;48.682;9.016;2024-01-30T15:50:30;12.40;92.00
3406;DHT22;10008;48.682;9.016;2024-01-30T15:52:56;12.30;92.50
3406;DHT22;10008;48.682;9.016;2024-01-30T15:55:22;12.30;94.50
3406;DHT22;10008;48.682;9.016;2024-01-30T15:57:47;12.20;94.30